Terminal Aerodrome Forecast
Issued by NWS Burlington, VT

Home | Current Version | Previous Version | Text Only | Print | Product List | Glossary On
Versions: 1 2 3 4 5 6 7 8 9 10 11 12 13 14 15 16 17
421
FTUS41 KBTV 031739
TAFBTV
TAF
KBTV 031739Z 0318/0418 32012G18KT 2SM -SHSN BR BKN025 OVC035
      TEMPO 0318/0322 6SM -SN BR SCT025 OVC035
     FM032200 32012G18KT 6SM BR VCSH SCT025 OVC035
     FM040100 33010KT P6SM VCSH SCT015 OVC025
     FM040400 33007KT 6SM BR VCSH SCT010 OVC020
     FM041200 33006KT P6SM SCT025 OVC035=

USA.gov is the U.S. government's official web portal to all federal, state and local government web resources and services.